Terminal Aerodrome Forecast
Issued by NWS Wilmington, NC

Home | Current Version | Previous Version | Text Only | Print | Product List | Glossary On
Versions: 1 2 3 4 5 6 7 8 9 10 11 12 13 14 15 16 17 18 19 20 21 22 23
000
FTUS42 KILM 052014 AAC
TAFFLO
TAF AMD
KFLO 052014Z 0520/0618 33010G15KT P6SM BKN060 OVC090
      TEMPO 0520/0522 VRB20G35KT 3SM TSRA SCT025 BKN035CB
     FM060000 31007KT P6SM VCSH BKN040 BKN080
     FM061300 33010KT P6SM VCSH BKN030=

USA.gov is the U.S. government's official web portal to all federal, state and local government web resources and services.